Time;durP1;ratioP1;P1;durP2;ratioP2;P2;SDS_P1;SDS_P2;PMS_P1;PMS_P2;Temp;Humidity;BMP_temperature;BMP_pressure;BME280_temperature;BME280_humidity;BME280_pressure;Samples;Min_cycle;Max_cycle;Signal;HPM_P1;HPM_P2
2022/12/26 00:01:19;;;;;;;9.53;4.50;;;;;;;;;;5006872;28;20411;-43
2022/12/26 00:03:45;;;;;;;6.67;4.83;;;;;;;;;;5010867;28;20553;-42
2022/12/26 00:06:16;;;;;;;9.67;5.33;;;;;;;;;;5010927;28;20422;-43
2022/12/26 00:08:42;;;;;;;9.63;5.83;;;;;;;;;;5008194;28;20407;-43
2022/12/26 00:11:08;;;;;;;6.90;5.93;;;;;;;;;;5010915;28;20503;-43
2022/12/26 00:13:34;;;;;;;13.47;7.60;;;;;;;;;;5004525;28;20510;-43
2022/12/26 00:16:05;;;;;;;9.53;6.20;;;;;;;;;;5004684;28;20451;-44
2022/12/26 00:18:31;;;;;;;12.33;7.13;;;;;;;;;;5011046;28;20414;-43
2022/12/26 00:20:57;;;;;;;10.30;7.20;;;;;;;;;;5011024;28;20411;-43
2022/12/26 00:23:22;;;;;;;9.83;7.10;;;;;;;;;;5007610;28;20463;-43
2022/12/26 00:25:48;;;;;;;13.07;8.03;;;;;;;;;;5010575;28;20450;-44
2022/12/26 00:28:14;;;;;;;11.70;8.70;;;;;;;;;;5004710;28;20866;-42
2022/12/26 00:30:40;;;;;;;16.33;9.20;;;;;;;;;;4999857;28;20419;-43
2022/12/26 00:33:06;;;;;;;13.77;8.27;;;;;;;;;;5011086;28;20427;-43
2022/12/26 00:35:32;;;;;;;16.47;9.07;;;;;;;;;;5010301;28;20419;-43
2022/12/26 00:37:58;;;;;;;14.10;9.50;;;;;;;;;;5012518;28;20485;-43
2022/12/26 00:40:24;;;;;;;16.37;9.90;;;;;;;;;;5014266;28;20453;-43
2022/12/26 00:42:50;;;;;;;12.87;9.00;;;;;;;;;;5007639;28;20787;-43
2022/12/26 00:45:16;;;;;;;13.40;9.00;;;;;;;;;;5014015;28;20506;-44
2022/12/26 00:47:42;;;;;;;14.50;9.37;;;;;;;;;;5014055;28;20435;-42
2022/12/26 00:50:08;;;;;;;14.03;8.70;;;;;;;;;;5010766;28;20476;-42
2022/12/26 00:52:34;;;;;;;17.87;9.80;;;;;;;;;;5014050;28;20415;-43
2022/12/26 00:55:00;;;;;;;15.47;10.43;;;;;;;;;;5014167;28;20551;-43
2022/12/26 00:57:26;;;;;;;15.63;9.70;;;;;;;;;;5013909;28;20458;-43
2022/12/26 00:59:52;;;;;;;13.40;10.10;;;;;;;;;;5014001;28;20423;-43
2022/12/26 01:05:03;;;;;;;13.23;9.80;;;;;;;;;;5010606;28;20463;-43
2022/12/26 01:07:32;;;;;;;13.43;9.27;;;;;;;;;;5008409;28;20435;-43
2022/12/26 01:09:58;;;;;;;14.40;8.83;;;;;;;;;;5013987;28;20417;-43
2022/12/26 01:12:26;;;;;;;12.13;8.53;;;;;;;;;;5013772;28;20415;-44
2022/12/26 01:14:52;;;;;;;7.10;6.07;;;;;;;;;;5012101;28;20422;-42
2022/12/26 01:17:17;;;;;;;9.30;7.20;;;;;;;;;;5013435;28;20435;-43
2022/12/26 01:19:43;;;;;;;15.23;7.80;;;;;;;;;;5013646;28;20415;-43
2022/12/26 01:22:09;;;;;;;11.17;7.97;;;;;;;;;;5009639;28;20415;-43
2022/12/26 01:24:35;;;;;;;8.93;8.03;;;;;;;;;;5013805;28;20469;-43
2022/12/26 01:27:01;;;;;;;9.40;7.87;;;;;;;;;;5013451;28;20859;-43
2022/12/26 01:29:27;;;;;;;14.03;8.73;;;;;;;;;;5011898;28;20415;-44
2022/12/26 01:31:53;;;;;;;14.20;8.63;;;;;;;;;;5013374;28;20407;-44
2022/12/26 01:34:19;;;;;;;11.93;8.83;;;;;;;;;;5009788;28;20459;-43
2022/12/26 01:36:45;;;;;;;15.03;8.53;;;;;;;;;;5012070;28;20990;-42
2022/12/26 01:39:11;;;;;;;12.30;8.47;;;;;;;;;;5013511;28;20542;-42
2022/12/26 01:41:37;;;;;;;19.37;9.17;;;;;;;;;;5013086;28;20899;-42
2022/12/26 01:44:05;;;;;;;10.37;9.27;;;;;;;;;;5011645;28;20462;-42
2022/12/26 01:46:30;;;;;;;43.33;27.13;;;;;;;;;;5012787;28;20562;-43
2022/12/26 01:48:58;;;;;;;13.43;8.40;;;;;;;;;;5007668;28;20523;-44
2022/12/26 01:51:26;;;;;;;9.27;7.40;;;;;;;;;;5012665;28;20419;-43
2022/12/26 01:53:54;;;;;;;8.87;7.23;;;;;;;;;;5009772;28;20411;-42
2022/12/26 01:56:23;;;;;;;13.53;7.37;;;;;;;;;;5007773;28;20917;-43
2022/12/26 01:58:56;;;;;;;7.60;6.77;;;;;;;;;;5012709;28;20582;-43
2022/12/26 02:01:24;;;;;;;10.37;7.40;;;;;;;;;;5008623;28;20927;-43
2022/12/26 02:06:35;;;;;;;9.47;7.60;;;;;;;;;;5012642;28;20442;-43
2022/12/26 02:09:01;;;;;;;10.57;7.17;;;;;;;;;;5004950;28;20420;-43
2022/12/26 02:11:31;;;;;;;7.40;5.67;;;;;;;;;;5011022;28;20415;-43
2022/12/26 02:13:57;;;;;;;10.23;6.47;;;;;;;;;;5001882;28;20427;-43
2022/12/26 02:16:24;;;;;;;7.00;5.20;;;;;;;;;;5012274;28;20443;-43
2022/12/26 02:18:50;;;;;;;8.67;5.17;;;;;;;;;;5011403;28;20505;-43
2022/12/26 02:21:22;;;;;;;5.57;4.83;;;;;;;;;;5006813;28;20447;-42
2022/12/26 02:24:11;;;;;;;9.70;5.90;;;;;;;;;;5012462;28;20489;-42
2022/12/26 02:26:52;;;;;;;6.87;4.50;;;;;;;;;;5012075;28;20431;-44
2022/12/26 02:29:36;;;;;;;6.80;4.80;;;;;;;;;;5009537;28;20798;-43
2022/12/26 02:32:08;;;;;;;6.57;4.90;;;;;;;;;;5009954;28;20941;-44
2022/12/26 02:34:40;;;;;;;7.33;4.53;;;;;;;;;;5006262;28;20422;-43
2022/12/26 02:37:12;;;;;;;5.60;5.00;;;;;;;;;;5012259;28;20458;-43
2022/12/26 02:39:44;;;;;;;6.43;4.17;;;;;;;;;;5012663;28;20419;-44
2022/12/26 02:42:17;;;;;;;5.63;5.13;;;;;;;;;;5009234;28;20417;-42
2022/12/26 02:47:36;;;;;;;6.93;4.67;;;;;;;;;;5005779;28;20535;-43
2022/12/26 03:13:18;;;;;;;6.53;4.97;;;;;;;;;;5004869;28;20430;-43
2022/12/26 03:18:40;;;;;;;8.73;5.30;;;;;;;;;;5011739;28;20402;-43
2022/12/26 03:21:07;;;;;;;5.10;4.70;;;;;;;;;;5011673;28;20415;-43
2022/12/26 03:23:34;;;;;;;7.47;5.10;;;;;;;;;;5008656;28;20919;-43
2022/12/26 03:28:48;;;;;;;6.70;5.07;;;;;;;;;;5011045;28;20430;-43
2022/12/26 03:31:14;;;;;;;5.53;4.83;;;;;;;;;;5006169;28;20437;-43
2022/12/26 03:36:35;;;;;;;6.07;4.90;;;;;;;;;;5011699;28;20450;-43
2022/12/26 03:39:08;;;;;;;11.43;5.40;;;;;;;;;;5008870;28;20411;-43
2022/12/26 04:44:05;;;;;;;5.83;5.30;;;;;;;;;;5012993;28;20530;-44
2022/12/26 04:46:33;;;;;;;6.43;5.60;;;;;;;;;;5015402;28;20455;-44
2022/12/26 04:51:44;;;;;;;5.67;5.07;;;;;;;;;;5012595;28;20985;-44
2022/12/26 04:54:10;;;;;;;9.70;5.03;;;;;;;;;;5016147;28;20441;-45
2022/12/26 04:56:36;;;;;;;5.40;4.90;;;;;;;;;;5015460;28;20537;-44
2022/12/26 04:59:02;;;;;;;7.07;5.43;;;;;;;;;;5016498;28;20415;-44
2022/12/26 05:09:49;;;;;;;5.03;4.53;;;;;;;;;;5013672;28;20411;-45
2022/12/26 05:12:15;;;;;;;5.37;4.90;;;;;;;;;;5010882;28;20403;-44
2022/12/26 05:14:41;;;;;;;5.50;5.00;;;;;;;;;;5015775;28;20869;-45
2022/12/26 05:30:58;;;;;;;7.30;5.07;;;;;;;;;;5009529;28;20500;-43
2022/12/26 05:36:09;;;;;;;5.97;4.63;;;;;;;;;;5002266;28;20438;-44
2022/12/26 05:38:36;;;;;;;6.17;4.77;;;;;;;;;;5014388;28;20414;-43
2022/12/26 05:41:02;;;;;;;4.83;4.20;;;;;;;;;;4996432;28;20415;-43
2022/12/26 05:43:28;;;;;;;4.90;4.50;;;;;;;;;;5011508;28;20417;-43
2022/12/26 05:45:53;;;;;;;4.57;3.70;;;;;;;;;;5013820;28;20759;-43
2022/12/26 05:48:19;;;;;;;4.60;3.80;;;;;;;;;;5009931;28;20439;-43
2022/12/26 05:50:45;;;;;;;4.97;4.43;;;;;;;;;;5013590;28;20474;-44
2022/12/26 05:53:11;;;;;;;5.00;4.50;;;;;;;;;;5009127;28;20415;-42
2022/12/26 05:55:37;;;;;;;4.37;3.97;;;;;;;;;;5012965;28;20906;-43
2022/12/26 05:58:03;;;;;;;4.23;3.93;;;;;;;;;;5013429;28;20435;-42
2022/12/26 06:00:30;;;;;;;5.47;4.90;;;;;;;;;;5014171;28;20885;-43
2022/12/26 06:02:58;;;;;;;4.90;4.40;;;;;;;;;;5012585;28;20861;-43
2022/12/26 06:05:23;;;;;;;5.60;5.00;;;;;;;;;;5009537;28;20481;-42
2022/12/26 06:07:49;;;;;;;4.70;4.27;;;;;;;;;;5013441;28;20481;-43
2022/12/26 06:10:15;;;;;;;4.93;4.40;;;;;;;;;;5013499;28;20419;-42
2022/12/26 06:12:41;;;;;;;4.97;4.47;;;;;;;;;;5010920;28;20490;-43
2022/12/26 06:15:08;;;;;;;5.00;4.60;;;;;;;;;;5013452;28;20423;-43
2022/12/26 06:17:33;;;;;;;4.80;4.30;;;;;;;;;;5008549;28;20443;-43
2022/12/26 06:19:59;;;;;;;5.40;5.00;;;;;;;;;;5013214;28;20477;-43
2022/12/26 06:22:28;;;;;;;6.13;5.37;;;;;;;;;;5013035;28;20414;-43
2022/12/26 06:24:54;;;;;;;5.30;4.80;;;;;;;;;;4997020;28;20509;-42
2022/12/26 06:27:19;;;;;;;7.10;4.73;;;;;;;;;;5010833;28;20476;-42
2022/12/26 06:29:46;;;;;;;6.10;5.40;;;;;;;;;;5013031;28;20821;-42
2022/12/26 06:32:11;;;;;;;5.37;4.87;;;;;;;;;;5007542;28;20426;-43
2022/12/26 06:34:37;;;;;;;7.90;5.77;;;;;;;;;;5012138;28;20423;-43
2022/12/26 06:37:03;;;;;;;5.60;5.10;;;;;;;;;;5012836;28;20447;-43
2022/12/26 06:39:29;;;;;;;6.43;5.33;;;;;;;;;;5010708;28;20858;-43
2022/12/26 06:41:55;;;;;;;12.33;5.40;;;;;;;;;;5013238;28;20416;-43
2022/12/26 06:44:21;;;;;;;7.00;4.93;;;;;;;;;;5012559;28;20472;-44
2022/12/26 06:46:47;;;;;;;6.30;5.53;;;;;;;;;;5007151;28;20469;-43
2022/12/26 06:49:13;;;;;;;7.80;6.00;;;;;;;;;;5012671;28;20435;-43
2022/12/26 06:51:39;;;;;;;6.30;4.93;;;;;;;;;;5012605;28;20411;-43
2022/12/26 06:54:06;;;;;;;6.93;6.13;;;;;;;;;;5012885;28;20980;-42
2022/12/26 06:56:33;;;;;;;7.50;5.00;;;;;;;;;;5012277;28;20819;-43
2022/12/26 06:59:00;;;;;;;6.10;5.60;;;;;;;;;;5010933;28;20411;-43
2022/12/26 07:01:26;;;;;;;8.90;5.77;;;;;;;;;;5012179;28;20446;-42
2022/12/26 07:03:53;;;;;;;6.40;5.33;;;;;;;;;;5012235;28;20819;-42
2022/12/26 07:06:19;;;;;;;5.60;5.10;;;;;;;;;;5009977;28;20407;-43
2022/12/26 07:08:45;;;;;;;6.20;5.20;;;;;;;;;;5011166;28;20411;-42
2022/12/26 07:11:18;;;;;;;13.80;4.87;;;;;;;;;;5012095;28;20422;-44
2022/12/26 07:13:44;;;;;;;5.20;4.80;;;;;;;;;;5012331;28;20790;-42
2022/12/26 07:16:11;;;;;;;4.67;4.27;;;;;;;;;;5011783;28;20426;-42
2022/12/26 07:18:37;;;;;;;5.20;4.70;;;;;;;;;;5010457;28;20415;-43
2022/12/26 07:21:06;;;;;;;6.90;4.13;;;;;;;;;;5012095;28;20429;-42
2022/12/26 07:23:32;;;;;;;6.10;4.17;;;;;;;;;;5006858;28;20876;-42
2022/12/26 07:25:58;;;;;;;5.90;4.73;;;;;;;;;;5011714;28;20484;-44
2022/12/26 07:28:24;;;;;;;5.20;4.20;;;;;;;;;;5011936;28;20427;-44
2022/12/26 07:30:50;;;;;;;5.33;4.83;;;;;;;;;;5003552;28;20767;-43
2022/12/26 07:33:16;;;;;;;5.13;4.63;;;;;;;;;;5010619;28;20505;-42
2022/12/26 07:35:42;;;;;;;8.07;5.73;;;;;;;;;;5011994;28;20422;-43
2022/12/26 07:38:09;;;;;;;6.20;5.60;;;;;;;;;;5006859;28;20509;-43
2022/12/26 07:40:35;;;;;;;6.00;5.50;;;;;;;;;;5011908;28;20420;-43
2022/12/26 07:43:01;;;;;;;7.97;6.80;;;;;;;;;;5008088;28;20422;-43
2022/12/26 07:45:27;;;;;;;9.67;6.70;;;;;;;;;;5010181;28;20543;-42
2022/12/26 07:47:54;;;;;;;7.33;5.47;;;;;;;;;;5015029;28;20423;-42
2022/12/26 07:50:20;;;;;;;7.20;6.50;;;;;;;;;;5012309;28;20431;-42
2022/12/26 07:52:46;;;;;;;8.17;6.53;;;;;;;;;;5015647;28;20455;-43
2022/12/26 07:55:12;;;;;;;11.37;7.07;;;;;;;;;;5009228;28;20455;-42
2022/12/26 07:57:37;;;;;;;8.87;7.53;;;;;;;;;;5015351;28;20505;-41
2022/12/26 08:00:04;;;;;;;7.50;6.20;;;;;;;;;;5015563;28;20404;-42
2022/12/26 08:02:30;;;;;;;8.30;7.27;;;;;;;;;;5012463;28;20911;-42
2022/12/26 08:04:56;;;;;;;6.90;5.73;;;;;;;;;;5015314;28;20460;-42
2022/12/26 08:07:22;;;;;;;7.90;6.30;;;;;;;;;;5015202;28;20423;-42
2022/12/26 08:09:48;;;;;;;9.53;5.77;;;;;;;;;;5012176;28;20473;-42
2022/12/26 08:12:14;;;;;;;5.93;5.33;;;;;;;;;;5015130;28;20522;-43
2022/12/26 08:14:40;;;;;;;5.80;5.30;;;;;;;;;;5015039;28;20967;-43
2022/12/26 08:17:06;;;;;;;7.90;6.57;;;;;;;;;;5012387;28;20426;-43
2022/12/26 08:19:33;;;;;;;5.40;4.90;;;;;;;;;;5015142;28;20407;-43
2022/12/26 08:21:59;;;;;;;9.13;5.17;;;;;;;;;;5013023;28;20402;-43
2022/12/26 08:24:25;;;;;;;8.07;4.23;;;;;;;;;;5010889;28;20454;-43
2022/12/26 08:26:51;;;;;;;5.13;4.63;;;;;;;;;;5013821;28;20435;-42
2022/12/26 08:29:17;;;;;;;4.60;4.20;;;;;;;;;;5013718;28;20415;-44
2022/12/26 08:31:43;;;;;;;4.10;3.70;;;;;;;;;;5014379;28;20970;-42
2022/12/26 08:34:09;;;;;;;8.07;4.23;;;;;;;;;;5013671;28;20924;-42
2022/12/26 08:36:35;;;;;;;3.30;3.00;;;;;;;;;;5012093;28;20672;-42
2022/12/26 08:39:01;;;;;;;2.80;2.60;;;;;;;;;;5014507;28;20412;-42
2022/12/26 08:41:27;;;;;;;4.60;3.07;;;;;;;;;;5007522;28;20419;-42
2022/12/26 08:43:53;;;;;;;3.07;2.83;;;;;;;;;;5013869;28;20473;-42
2022/12/26 08:46:20;;;;;;;4.07;2.83;;;;;;;;;;5014375;28;20522;-42
2022/12/26 08:48:46;;;;;;;3.40;2.70;;;;;;;;;;5011447;28;20494;-43
2022/12/26 08:51:13;;;;;;;4.83;2.90;;;;;;;;;;5014340;28;20446;-43
2022/12/26 08:53:40;;;;;;;3.10;2.90;;;;;;;;;;5013823;28;20411;-42
2022/12/26 08:56:07;;;;;;;3.27;2.37;;;;;;;;;;5007544;28;20435;-42
2022/12/26 08:58:34;;;;;;;10.10;2.10;;;;;;;;;;5013351;28;20412;-43
2022/12/26 09:01:10;;;;;;;2.50;2.23;;;;;;;;;;5012120;28;20906;-42
2022/12/26 09:03:36;;;;;;;2.60;2.10;;;;;;;;;;5014045;28;20493;-42
2022/12/26 09:06:03;;;;;;;5.63;2.27;;;;;;;;;;5008581;28;21033;-42
2022/12/26 09:08:29;;;;;;;9.43;2.40;;;;;;;;;;5013941;28;20918;-43
2022/12/26 09:10:56;;;;;;;2.17;2.07;;;;;;;;;;5013786;28;20415;-43
2022/12/26 09:13:22;;;;;;;4.20;2.10;;;;;;;;;;5012889;28;20864;-42
2022/12/26 09:15:48;;;;;;;2.83;2.07;;;;;;;;;;5013169;28;20443;-42
2022/12/26 09:18:14;;;;;;;2.17;2.03;;;;;;;;;;5013917;28;20443;-43
2022/12/26 09:20:40;;;;;;;2.83;2.00;;;;;;;;;;5008209;28;20473;-43
2022/12/26 09:23:09;;;;;;;3.97;1.70;;;;;;;;;;5013838;28;20426;-41
2022/12/26 09:25:35;;;;;;;2.60;1.73;;;;;;;;;;5013780;28;20561;-42
2022/12/26 09:28:01;;;;;;;2.40;1.60;;;;;;;;;;5011621;28;20470;-42
2022/12/26 09:30:27;;;;;;;2.60;1.67;;;;;;;;;;5013624;28;20416;-42
2022/12/26 09:32:54;;;;;;;1.53;1.43;;;;;;;;;;5013424;28;20848;-41
2022/12/26 09:35:20;;;;;;;3.20;1.60;;;;;;;;;;5013681;28;20407;-41
2022/12/26 09:37:46;;;;;;;5.03;1.87;;;;;;;;;;5006178;28;21016;-41
2022/12/26 09:40:21;;;;;;;1.80;1.70;;;;;;;;;;5013320;28;20411;-41
2022/12/26 09:43:25;;;;;;;1.93;1.80;;;;;;;;;;5011457;28;20790;-42
2022/12/26 09:46:06;;;;;;;2.20;1.73;;;;;;;;;;4943108;29;20564;-42
2022/12/26 09:48:39;;;;;;;3.30;1.80;;;;;;;;;;4944404;29;20457;-42
2022/12/26 09:51:05;;;;;;;3.07;1.63;;;;;;;;;;4988596;28;20419;-41
2022/12/26 09:53:33;;;;;;;2.07;1.90;;;;;;;;;;5012674;28;20453;-42
2022/12/26 09:56:00;;;;;;;2.63;1.80;;;;;;;;;;5018230;28;20425;-42
2022/12/26 09:58:28;;;;;;;3.43;1.70;;;;;;;;;;5013016;28;20930;-41
2022/12/26 10:01:09;;;;;;;2.70;1.60;;;;;;;;;;5008361;28;20412;-42
2022/12/26 10:03:45;;;;;;;1.87;1.77;;;;;;;;;;5012870;28;20424;-41
2022/12/26 10:06:14;;;;;;;3.47;2.17;;;;;;;;;;5012799;28;20419;-41
2022/12/26 10:08:46;;;;;;;4.70;1.53;;;;;;;;;;5012926;28;20418;-42
2022/12/26 10:11:21;;;;;;;1.47;1.30;;;;;;;;;;5010880;28;20953;-42
2022/12/26 10:13:51;;;;;;;1.47;1.37;;;;;;;;;;5009881;28;20439;-41
2022/12/26 10:16:21;;;;;;;2.03;1.47;;;;;;;;;;5012599;28;20483;-42
2022/12/26 10:19:02;;;;;;;3.67;1.53;;;;;;;;;;5011870;28;20442;-42
2022/12/26 10:21:28;;;;;;;3.17;1.60;;;;;;;;;;5009040;28;20406;-42
2022/12/26 10:23:56;;;;;;;1.53;1.43;;;;;;;;;;5012723;28;20465;-42
2022/12/26 10:26:24;;;;;;;2.70;1.67;;;;;;;;;;5010720;28;20418;-41
2022/12/26 10:29:00;;;;;;;2.30;1.60;;;;;;;;;;5012023;28;20408;-41
2022/12/26 10:31:30;;;;;;;2.40;1.80;;;;;;;;;;5007440;28;20778;-41
2022/12/26 10:33:59;;;;;;;2.13;1.53;;;;;;;;;;5003425;28;20462;-42
2022/12/26 10:36:34;;;;;;;1.93;1.63;;;;;;;;;;5011667;28;20457;-41
2022/12/26 10:39:01;;;;;;;6.07;2.20;;;;;;;;;;5003288;28;20419;-42
2022/12/26 10:41:47;;;;;;;5.30;1.77;;;;;;;;;;5011991;28;20420;-41
2022/12/26 10:44:14;;;;;;;4.57;1.70;;;;;;;;;;4995236;28;20475;-40
2022/12/26 10:47:01;;;;;;;3.47;1.73;;;;;;;;;;4993527;28;20514;-42
2022/12/26 10:49:27;;;;;;;2.70;1.50;;;;;;;;;;4993003;28;20799;-42
2022/12/26 10:51:55;;;;;;;8.70;1.60;;;;;;;;;;5009129;28;20411;-41
2022/12/26 10:54:21;;;;;;;1.77;1.50;;;;;;;;;;5008425;28;20420;-42
2022/12/26 10:56:48;;;;;;;3.00;1.60;;;;;;;;;;5011918;28;20953;-42
2022/12/26 10:59:20;;;;;;;1.33;1.23;;;;;;;;;;5011711;28;20779;-45
2022/12/26 11:01:48;;;;;;;1.87;1.50;;;;;;;;;;5011163;28;20900;-45
2022/12/26 11:04:16;;;;;;;2.30;1.70;;;;;;;;;;5012208;28;20469;-44
2022/12/26 11:06:43;;;;;;;2.87;1.87;;;;;;;;;;5009874;28;20436;-43
2022/12/26 11:09:23;;;;;;;2.10;1.43;;;;;;;;;;5012341;28;20415;-44
2022/12/26 11:11:53;;;;;;;1.83;1.60;;;;;;;;;;5005375;28;20413;-45
2022/12/26 11:14:26;;;;;;;1.83;1.73;;;;;;;;;;5012855;28;20395;-42
2022/12/26 11:16:52;;;;;;;3.10;2.13;;;;;;;;;;5009184;28;20833;-42
2022/12/26 11:19:28;;;;;;;2.53;1.70;;;;;;;;;;5011481;28;20457;-42
2022/12/26 11:21:54;;;;;;;2.97;1.40;;;;;;;;;;5010655;28;20858;-42
2022/12/26 11:24:20;;;;;;;5.27;2.00;;;;;;;;;;5011851;28;21054;-42
2022/12/26 11:26:46;;;;;;;1.93;1.70;;;;;;;;;;5011626;28;20438;-42
2022/12/26 11:29:16;;;;;;;1.57;1.37;;;;;;;;;;5011569;28;20422;-42
2022/12/26 11:31:59;;;;;;;2.43;1.70;;;;;;;;;;5011521;28;20410;-42
2022/12/26 11:34:28;;;;;;;1.60;1.50;;;;;;;;;;5010411;28;20423;-43
2022/12/26 11:36:54;;;;;;;2.40;2.20;;;;;;;;;;5010967;28;20843;-42
2022/12/26 11:39:25;;;;;;;1.67;1.57;;;;;;;;;;5011173;28;20419;-43
2022/12/26 11:41:52;;;;;;;1.63;1.53;;;;;;;;;;5011156;28;20416;-42
2022/12/26 11:44:21;;;;;;;2.80;1.60;;;;;;;;;;5011674;28;20516;-42
2022/12/26 11:46:48;;;;;;;1.90;1.57;;;;;;;;;;5010461;28;20799;-45
2022/12/26 11:49:24;;;;;;;5.00;1.60;;;;;;;;;;5011362;28;20571;-42
2022/12/26 11:51:51;;;;;;;13.57;6.93;;;;;;;;;;5007943;28;20853;-42
2022/12/26 11:54:22;;;;;;;22.23;8.77;;;;;;;;;;5009580;28;20416;-42
2022/12/26 11:56:49;;;;;;;5.07;3.13;;;;;;;;;;5005735;28;20948;-43
2022/12/26 11:59:19;;;;;;;1.60;1.50;;;;;;;;;;5007047;28;20418;-43
2022/12/26 12:01:45;;;;;;;1.40;1.30;;;;;;;;;;5010210;28;20505;-42
2022/12/26 12:04:11;;;;;;;4.73;1.77;;;;;;;;;;5010802;28;20463;-42
2022/12/26 12:06:46;;;;;;;2.63;1.33;;;;;;;;;;5010628;28;20411;-42
2022/12/26 12:09:11;;;;;;;3.20;1.63;;;;;;;;;;5009327;28;20426;-44
2022/12/26 12:11:56;;;;;;;2.20;1.80;;;;;;;;;;5009265;28;20419;-41
2022/12/26 12:14:37;;;;;;;2.00;1.83;;;;;;;;;;5010664;28;20429;-41
2022/12/26 12:17:21;;;;;;;4.87;2.10;;;;;;;;;;5010359;28;20465;-41
2022/12/26 12:20:13;;;;;;;2.60;1.83;;;;;;;;;;5009875;28;20418;-42
2022/12/26 12:22:48;;;;;;;2.70;1.70;;;;;;;;;;4980480;28;20510;-43
2022/12/26 12:25:17;;;;;;;4.13;1.30;;;;;;;;;;5011126;28;21068;-41
2022/12/26 12:27:52;;;;;;;2.17;1.70;;;;;;;;;;5010782;28;20438;-41
2022/12/26 12:30:23;;;;;;;5.93;1.90;;;;;;;;;;5006938;28;20931;-42
2022/12/26 12:33:06;;;;;;;1.60;1.50;;;;;;;;;;5011180;28;20794;-41
2022/12/26 12:35:50;;;;;;;5.60;2.00;;;;;;;;;;5014780;28;20423;-42
2022/12/26 12:38:23;;;;;;;4.73;1.93;;;;;;;;;;5014518;28;20530;-42
2022/12/26 12:41:15;;;;;;;4.53;2.00;;;;;;;;;;5013759;28;20399;-42
2022/12/26 12:44:01;;;;;;;2.73;2.53;;;;;;;;;;4984463;28;20419;-42
2022/12/26 12:46:40;;;;;;;7.70;1.97;;;;;;;;;;5014232;28;20958;-42
2022/12/26 12:49:16;;;;;;;6.13;1.70;;;;;;;;;;5014572;28;20899;-42
2022/12/26 12:51:48;;;;;;;3.57;1.83;;;;;;;;;;5014259;28;20423;-43
2022/12/26 12:54:14;;;;;;;1.70;1.50;;;;;;;;;;5014597;28;20422;-42
2022/12/26 12:56:54;;;;;;;2.17;1.70;;;;;;;;;;5014198;28;20430;-42
2022/12/26 12:59:39;;;;;;;1.97;1.73;;;;;;;;;;4980363;28;20973;-42
2022/12/26 13:02:17;;;;;;;2.10;1.90;;;;;;;;;;5010169;28;20434;-42
2022/12/26 13:04:45;;;;;;;3.53;1.90;;;;;;;;;;4999524;28;20534;-42
2022/12/26 13:07:16;;;;;;;1.87;1.73;;;;;;;;;;4994338;28;20526;-43
2022/12/26 13:09:45;;;;;;;2.83;1.90;;;;;;;;;;5003566;28;20419;-42
2022/12/26 13:12:15;;;;;;;3.17;1.57;;;;;;;;;;4994417;28;20966;-43
2022/12/26 13:14:43;;;;;;;2.07;1.43;;;;;;;;;;4999190;28;20775;-42
2022/12/26 13:17:12;;;;;;;2.60;1.67;;;;;;;;;;5013907;28;20870;-41
2022/12/26 13:19:41;;;;;;;5.50;1.90;;;;;;;;;;5013893;28;20414;-41
2022/12/26 13:22:13;;;;;;;7.97;2.67;;;;;;;;;;5014166;28;20811;-42
2022/12/26 13:24:48;;;;;;;3.40;1.77;;;;;;;;;;5013117;28;20493;-41
2022/12/26 13:27:26;;;;;;;6.00;2.40;;;;;;;;;;5013206;28;20664;-42
2022/12/26 13:29:52;;;;;;;6.57;2.80;;;;;;;;;;5013393;28;20906;-41
2022/12/26 13:32:31;;;;;;;4.33;3.13;;;;;;;;;;5013292;28;20414;-41
2022/12/26 13:34:59;;;;;;;5.10;2.50;;;;;;;;;;5012970;28;20467;-43
2022/12/26 13:37:36;;;;;;;3.23;2.70;;;;;;;;;;5012094;28;21009;-41
2022/12/26 13:40:14;;;;;;;5.00;2.87;;;;;;;;;;5013148;28;20525;-42
2022/12/26 13:45:42;;;;;;;3.33;3.03;;;;;;;;;;5012360;28;20568;-42
2022/12/26 13:48:17;;;;;;;7.23;4.20;;;;;;;;;;5012751;28;20586;-42
2022/12/26 13:50:46;;;;;;;5.10;3.13;;;;;;;;;;5012884;28;20458;-42
2022/12/26 13:53:24;;;;;;;7.27;4.30;;;;;;;;;;5012673;28;20428;-42
2022/12/26 13:55:56;;;;;;;6.63;4.70;;;;;;;;;;5012561;28;20425;-41
2022/12/26 13:58:28;;;;;;;7.03;3.23;;;;;;;;;;4994197;28;20440;-42
2022/12/26 14:01:04;;;;;;;11.93;5.03;;;;;;;;;;4992992;28;20414;-42
2022/12/26 14:03:59;;;;;;;10.03;4.87;;;;;;;;;;5004679;28;20429;-42
2022/12/26 14:06:35;;;;;;;6.53;4.10;;;;;;;;;;4995027;28;20994;-42
2022/12/26 14:09:07;;;;;;;5.13;4.73;;;;;;;;;;5012821;28;20782;-42
2022/12/26 14:11:51;;;;;;;7.43;4.30;;;;;;;;;;5012867;28;20424;-42
2022/12/26 14:14:30;;;;;;;9.63;4.63;;;;;;;;;;5012941;28;20476;-42
2022/12/26 14:17:12;;;;;;;8.83;5.37;;;;;;;;;;5012088;28;20441;-42
2022/12/26 14:19:38;;;;;;;5.77;3.53;;;;;;;;;;5012857;28;20469;-42
2022/12/26 14:22:12;;;;;;;8.13;5.60;;;;;;;;;;5012788;28;20419;-42
2022/12/26 14:24:50;;;;;;;7.97;5.50;;;;;;;;;;5012701;28;20462;-42
2022/12/26 14:27:25;;;;;;;10.40;6.47;;;;;;;;;;5012196;28;20454;-42
2022/12/26 14:29:58;;;;;;;11.77;6.07;;;;;;;;;;4993805;28;20414;-42
2022/12/26 14:32:33;;;;;;;6.40;4.90;;;;;;;;;;4992781;28;20457;-42
2022/12/26 14:35:18;;;;;;;10.50;5.67;;;;;;;;;;4992014;28;20408;-41
2022/12/26 14:38:03;;;;;;;6.40;4.67;;;;;;;;;;4990593;28;20466;-42
2022/12/26 14:40:30;;;;;;;4.43;4.03;;;;;;;;;;4991352;28;20824;-42
2022/12/26 14:43:12;;;;;;;5.87;3.97;;;;;;;;;;4991043;28;20635;-43
2022/12/26 14:45:46;;;;;;;9.20;4.70;;;;;;;;;;4990229;28;20469;-42
2022/12/26 14:48:15;;;;;;;7.30;4.20;;;;;;;;;;4990948;28;20432;-42
2022/12/26 14:51:13;;;;;;;7.83;4.40;;;;;;;;;;4991490;28;20441;-42
2022/12/26 14:53:39;;;;;;;6.43;3.57;;;;;;;;;;4992010;28;20434;-41
2022/12/26 14:56:12;;;;;;;8.90;4.07;;;;;;;;;;5004181;28;20417;-42
2022/12/26 14:58:43;;;;;;;6.40;3.93;;;;;;;;;;5011438;28;20472;-42
2022/12/26 15:01:11;;;;;;;7.03;4.33;;;;;;;;;;5011746;28;20423;-42
2022/12/26 15:03:40;;;;;;;9.30;4.33;;;;;;;;;;5012066;28;20893;-42
2022/12/26 15:06:15;;;;;;;5.70;4.03;;;;;;;;;;5011817;28;20875;-42
2022/12/26 15:08:54;;;;;;;8.10;3.80;;;;;;;;;;5012021;28;20418;-42
2022/12/26 15:11:26;;;;;;;11.93;3.90;;;;;;;;;;5011806;28;20788;-41
2022/12/26 15:14:02;;;;;;;11.53;4.00;;;;;;;;;;5011588;28;20414;-42
2022/12/26 15:16:54;;;;;;;17.50;4.30;;;;;;;;;;5004292;28;20471;-41
2022/12/26 15:19:26;;;;;;;15.33;4.77;;;;;;;;;;5010769;28;20421;-42
2022/12/26 15:22:11;;;;;;;5.70;3.67;;;;;;;;;;5011118;28;20413;-42
2022/12/26 15:24:55;;;;;;;6.50;3.50;;;;;;;;;;5007541;28;20471;-42
2022/12/26 15:27:21;;;;;;;9.37;3.77;;;;;;;;;;5011531;28;20434;-41
2022/12/26 15:30:02;;;;;;;12.07;4.07;;;;;;;;;;5003949;28;20414;-42
2022/12/26 15:32:43;;;;;;;7.43;4.43;;;;;;;;;;5011040;28;20912;-42
2022/12/26 15:35:29;;;;;;;13.33;4.23;;;;;;;;;;5000339;28;20446;-42
2022/12/26 15:38:14;;;;;;;7.13;4.40;;;;;;;;;;4998480;28;20428;-42
2022/12/26 15:41:03;;;;;;;8.53;4.73;;;;;;;;;;5005354;28;20781;-42
2022/12/26 15:43:42;;;;;;;6.20;4.07;;;;;;;;;;4991929;28;20931;-43
2022/12/26 15:46:29;;;;;;;9.90;4.43;;;;;;;;;;5010400;28;20517;-41
2022/12/26 15:49:07;;;;;;;10.43;5.50;;;;;;;;;;4999956;28;20843;-42
2022/12/26 15:51:51;;;;;;;11.00;4.70;;;;;;;;;;4991541;28;20453;-41
2022/12/26 15:54:37;;;;;;;4.37;3.70;;;;;;;;;;5001964;28;20408;-42
2022/12/26 15:57:15;;;;;;;8.20;4.07;;;;;;;;;;5010323;28;20427;-43
2022/12/26 15:59:58;;;;;;;9.10;3.80;;;;;;;;;;5010979;28;20443;-42
2022/12/26 16:02:27;;;;;;;5.43;3.57;;;;;;;;;;5010797;28;20408;-41
2022/12/26 16:04:56;;;;;;;6.60;3.27;;;;;;;;;;5010673;28;20553;-42
2022/12/26 16:07:28;;;;;;;4.97;3.57;;;;;;;;;;5011396;28;20436;-42
2022/12/26 16:09:55;;;;;;;5.50;3.90;;;;;;;;;;5014555;28;20424;-42
2022/12/26 16:12:21;;;;;;;8.63;3.33;;;;;;;;;;5000314;28;20405;-42
2022/12/26 16:14:47;;;;;;;9.37;3.83;;;;;;;;;;4993703;28;20499;-42
2022/12/26 16:17:13;;;;;;;6.83;3.00;;;;;;;;;;4994870;28;20428;-42
2022/12/26 16:19:42;;;;;;;7.83;2.77;;;;;;;;;;4995051;28;20424;-41
2022/12/26 16:25:00;;;;;;;6.83;3.90;;;;;;;;;;4995170;28;20484;-43
2022/12/26 16:27:26;;;;;;;5.80;3.60;;;;;;;;;;4994541;28;20964;-42
2022/12/26 16:29:55;;;;;;;6.82;2.95;;;;;;;;;;4997878;28;20413;-41
2022/12/26 16:32:25;;;;;;;5.90;2.97;;;;;;;;;;4996620;28;20208;-43
2022/12/26 16:34:51;;;;;;;5.65;2.60;;;;;;;;;;5014203;28;20835;-42
2022/12/26 16:37:19;;;;;;;7.73;3.37;;;;;;;;;;4996530;28;20217;-42
2022/12/26 16:39:46;;;;;;;11.48;3.40;;;;;;;;;;5014065;28;20891;-41
2022/12/26 16:42:28;;;;;;;4.07;3.03;;;;;;;;;;5014093;28;20698;-43
2022/12/26 16:44:54;;;;;;;3.00;2.65;;;;;;;;;;5013581;28;20963;-43
2022/12/26 16:47:21;;;;;;;13.68;3.50;;;;;;;;;;5013946;28;20219;-42
2022/12/26 16:49:47;;;;;;;5.93;3.10;;;;;;;;;;5013921;28;20263;-41
2022/12/26 16:52:39;;;;;;;6.82;4.22;;;;;;;;;;5013846;28;20176;-41
2022/12/26 16:55:24;;;;;;;4.88;3.58;;;;;;;;;;5004541;28;20200;-42
2022/12/26 16:57:55;;;;;;;7.80;3.03;;;;;;;;;;5013613;28;20304;-41
2022/12/26 17:00:21;;;;;;;6.87;3.43;;;;;;;;;;5011150;28;20418;-42
2022/12/26 17:02:48;;;;;;;8.93;3.60;;;;;;;;;;5013448;28;20494;-42
2022/12/26 17:05:22;;;;;;;4.68;3.75;;;;;;;;;;5008175;28;20458;-41
2022/12/26 17:07:49;;;;;;;8.07;4.28;;;;;;;;;;4997489;28;20196;-41
2022/12/26 17:10:18;;;;;;;15.52;6.40;;;;;;;;;;5013423;28;20181;-41
2022/12/26 17:12:46;;;;;;;9.27;3.05;;;;;;;;;;5014139;28;20168;-42
2022/12/26 17:15:19;;;;;;;5.53;3.35;;;;;;;;;;4994861;28;20188;-42